createdAt,value
2023-04-02T00:01:05.212Z,100098.66
2023-04-02T00:03:44.736Z,100028.28
2023-04-02T00:06:40.531Z,100100.78
2023-04-02T00:09:13.413Z,100101.22
2023-04-02T00:11:49.258Z,100055.31
2023-04-02T00:14:43.267Z,100087.41
2023-04-02T00:17:18.800Z,100093.75
2023-04-02T00:19:51.193Z,100087.78
2023-04-02T00:22:30.034Z,100080.66
2023-04-02T00:25:05.375Z,100041.50
2023-04-02T00:27:32.634Z,100010.63
2023-04-02T00:29:59.693Z,100004.16
2023-04-02T00:32:32.309Z,100119.84
2023-04-02T00:35:02.930Z,100109.56
2023-04-02T00:37:39.411Z,100138.25
2023-04-02T00:40:19.654Z,100052.53
2023-04-02T00:42:48.331Z,100146.75
2023-04-02T00:45:33.906Z,100099.81
2023-04-02T00:48:23.477Z,100149.75
2023-04-02T00:50:53.156Z,100131.63
2023-04-02T00:53:28.724Z,100142.41
2023-04-02T00:55:58.768Z,100154.97
2023-04-02T00:58:36.844Z,100128.19
2023-04-02T01:01:10.668Z,100166.38
2023-04-02T01:03:39.128Z,100134.88
2023-04-02T01:06:13.234Z,100141.19
2023-04-02T01:09:11.558Z,100163.53
2023-04-02T01:12:08.899Z,100167.09
2023-04-02T01:15:07.981Z,100110.25
2023-04-02T01:18:00.577Z,100160.88
2023-04-02T01:21:12.701Z,100078.59
2023-04-02T01:24:01.404Z,100165.28
2023-04-02T01:27:04.727Z,100170.44
2023-04-02T01:29:40.554Z,100176.25
2023-04-02T01:32:13.319Z,100172.09
2023-04-02T01:34:40.415Z,100139.97
2023-04-02T01:37:27.626Z,100158.97
2023-04-02T01:40:06.740Z,100147.59
2023-04-02T01:43:06.197Z,100130.78
2023-04-02T01:45:36.512Z,100168.16
2023-04-02T01:48:23.351Z,100146.50
2023-04-02T01:50:53.058Z,100175.19
2023-04-02T01:53:22.365Z,100170.31
2023-04-02T01:55:54.597Z,100181.31
2023-04-02T01:58:31.219Z,100184.00
2023-04-02T02:01:13.346Z,100188.00
2023-04-02T02:03:45.797Z,100190.00
2023-04-02T02:06:17.124Z,100194.31
2023-04-02T02:08:54.743Z,100200.69
2023-04-02T02:11:24.858Z,100177.53
2023-04-02T02:14:08.613Z,100204.72
2023-04-02T02:16:46.552Z,100187.72
2023-04-02T02:19:49.912Z,100202.06
2023-04-02T02:22:33.604Z,100147.06
2023-04-02T02:25:20.275Z,100191.38
2023-04-02T02:28:01.266Z,100196.56
2023-04-02T02:30:35.751Z,100209.06
2023-04-02T02:33:33.163Z,100134.56
2023-04-02T02:36:05.635Z,100193.75
2023-04-02T02:41:42.284Z,100198.72
2023-04-02T02:44:14.852Z,100206.41
2023-04-02T02:46:54.770Z,100210.75
2023-04-02T02:49:41.018Z,100199.09
2023-04-02T02:52:11.128Z,100217.09
2023-04-02T02:54:41.609Z,100218.25
2023-04-02T02:57:14.164Z,100178.38
2023-04-02T02:59:42.538Z,100184.56
2023-04-02T03:02:09.680Z,100219.75
2023-04-02T03:04:57.338Z,100220.06
2023-04-02T03:07:30.726Z,100214.41
2023-04-02T03:10:12.923Z,100228.75
2023-04-02T03:13:03.835Z,100181.09
2023-04-02T03:16:21.542Z,100219.06
2023-04-02T03:18:56.771Z,100229.59
2023-04-02T03:21:56.995Z,100238.94
2023-04-02T03:25:05.498Z,100233.75
2023-04-02T03:27:44.615Z,100218.09
2023-04-02T03:30:34.271Z,100233.75
2023-04-02T03:33:06.838Z,100228.94
2023-04-02T03:36:08.086Z,100240.78
2023-04-02T03:38:52.308Z,100229.91
2023-04-02T03:41:25.077Z,100259.44
2023-04-02T03:43:59.060Z,100240.78
2023-04-02T03:46:35.552Z,100254.94
2023-04-02T03:49:29.354Z,100220.75
2023-04-02T03:52:08.407Z,100262.44
2023-04-02T03:54:40.726Z,100265.81
2023-04-02T03:57:44.054Z,100263.44
2023-04-02T04:00:38.060Z,100257.78
2023-04-02T04:03:21.752Z,100270.47
2023-04-02T04:06:01.483Z,100208.91
2023-04-02T04:08:38.139Z,100228.94
2023-04-02T04:11:13.573Z,100270.44
2023-04-02T04:13:53.655Z,100273.78
2023-04-02T04:16:34.951Z,100219.72
2023-04-02T04:19:21.954Z,100263.44
2023-04-02T04:21:49.329Z,100228.41
2023-04-02T04:24:25.617Z,100274.13
2023-04-02T04:27:04.074Z,100285.91
2023-04-02T04:29:56.405Z,100276.88
2023-04-02T04:32:39.280Z,100231.06
2023-04-02T04:35:18.400Z,100296.34
2023-04-02T04:37:59.376Z,100299.69
2023-04-02T04:40:33.952Z,100301.97
2023-04-02T04:43:07.127Z,100268.78
2023-04-02T04:45:41.452Z,100307.63
2023-04-02T04:48:31.663Z,100306.56
2023-04-02T04:51:31.039Z,100317.91
2023-04-02T04:53:58.157Z,100337.63
2023-04-02T04:56:28.624Z,100317.22
2023-04-02T04:59:19.514Z,100339.94
2023-04-02T05:02:06.038Z,100237.31
2023-04-02T05:04:39.514Z,100321.66
2023-04-02T05:07:23.488Z,100356.38
2023-04-02T05:10:30.308Z,100336.22
2023-04-02T05:13:24.778Z,100314.91
2023-04-02T05:16:21.481Z,100373.19
2023-04-02T05:19:26.971Z,100371.31
2023-04-02T05:22:29.417Z,100358.25
2023-04-02T05:25:07.919Z,100322.44
2023-04-02T05:28:13.540Z,100370.88
2023-04-02T05:30:57.097Z,100376.06
2023-04-02T05:33:31.972Z,100380.06
2023-04-02T05:36:30.503Z,100391.53
2023-04-02T05:39:06.004Z,100226.09
2023-04-02T05:41:51.342Z,100233.94
2023-04-02T05:44:27.273Z,100395.53
2023-04-02T05:47:20.166Z,100387.09
2023-04-02T05:49:58.888Z,100191.41
2023-04-02T05:52:34.293Z,100376.41
2023-04-02T05:55:24.280Z,100395.97
2023-04-02T05:58:21.118Z,100149.81
2023-04-02T06:01:17.800Z,100400.25
2023-04-02T06:04:05.583Z,100365.84
2023-04-02T06:06:45.747Z,100397.53
2023-04-02T06:09:33.477Z,100302.28
2023-04-02T06:12:14.895Z,100182.66
2023-04-02T06:14:42.208Z,100389.38
2023-04-02T06:17:18.265Z,100394.19
2023-04-02T06:19:49.286Z,100418.38
2023-04-02T06:22:40.430Z,100230.59
2023-04-02T06:25:18.023Z,100265.50
2023-04-02T06:27:47.288Z,100226.19
2023-04-02T06:30:31.778Z,100352.28
2023-04-02T06:32:58.573Z,100329.59
2023-04-02T06:35:31.516Z,100421.72
2023-04-02T06:38:04.273Z,100354.16
2023-04-02T06:40:34.154Z,100387.84
2023-04-02T06:43:22.899Z,100369.38
2023-04-02T06:46:04.608Z,100385.72
2023-04-02T06:48:38.174Z,100406.25
2023-04-02T06:51:19.913Z,100329.09
2023-04-02T06:53:49.310Z,100313.38
2023-04-02T06:56:45.485Z,100505.00
2023-04-02T06:59:13.216Z,100284.16
2023-04-02T07:02:06.866Z,100409.53
2023-04-02T07:04:34.063Z,100489.34
2023-04-02T07:07:01.168Z,100299.66
2023-04-02T07:09:30.381Z,100500.59
2023-04-02T07:11:57.092Z,100287.00
2023-04-02T07:14:25.444Z,100482.13
2023-04-02T07:17:00.993Z,100396.69
2023-04-02T07:19:31.606Z,100530.25
2023-04-02T07:22:06.137Z,100543.38
2023-04-02T07:24:35.173Z,100285.44
2023-04-02T07:27:02.047Z,100509.72
2023-04-02T07:29:28.917Z,100359.28
2023-04-02T07:31:55.863Z,100460.34
2023-04-02T07:34:30.856Z,100552.13
2023-04-02T07:36:57.645Z,100578.13
2023-04-02T07:39:42.355Z,100543.50
2023-04-02T07:42:09.601Z,100575.88
2023-04-02T07:44:41.049Z,100552.19
2023-04-02T07:47:10.951Z,100572.06
2023-04-02T07:49:38.002Z,100579.81
2023-04-02T07:52:07.315Z,100451.22
2023-04-02T07:54:34.241Z,100564.06
2023-04-02T07:57:01.191Z,100600.19
2023-04-02T07:59:28.120Z,100598.25
2023-04-02T08:01:54.775Z,100585.53
2023-04-02T08:04:23.098Z,100609.03
2023-04-02T08:06:53.057Z,100576.69
2023-04-02T08:09:30.374Z,100613.38
2023-04-02T08:11:57.316Z,100633.25
2023-04-02T08:14:24.273Z,100627.63
2023-04-02T08:16:53.202Z,100634.28
2023-04-02T08:19:29.843Z,100499.50
2023-04-02T08:22:01.078Z,100557.63
2023-04-02T08:24:27.954Z,100622.47
2023-04-02T08:26:55.110Z,100644.22
2023-04-02T08:29:34.249Z,100650.94
2023-04-02T08:32:02.025Z,100625.28
2023-04-02T08:34:37.181Z,100655.91
2023-04-02T08:37:03.938Z,100640.50
2023-04-02T08:39:33.283Z,100649.88
2023-04-02T08:42:16.352Z,100660.25
2023-04-02T08:45:27.328Z,100666.59
2023-04-02T08:47:57.793Z,100658.59
2023-04-02T08:50:34.293Z,100658.88
2023-04-02T08:53:17.545Z,100664.88
2023-04-02T08:56:08.846Z,100666.69
2023-04-02T08:59:02.533Z,100667.69
2023-04-02T09:01:51.933Z,100662.44
2023-04-02T09:04:25.107Z,100635.03
2023-04-02T09:09:38.741Z,100633.94
2023-04-02T09:12:21.206Z,100679.94
2023-04-02T09:15:18.579Z,100680.72
2023-04-02T09:17:54.192Z,100644.97
2023-04-02T09:20:41.840Z,100655.38
2023-04-02T09:23:34.228Z,100653.41
2023-04-02T09:26:05.090Z,100682.91
2023-04-02T09:28:43.843Z,100647.13
2023-04-02T09:31:32.679Z,100666.47
2023-04-02T09:34:06.225Z,100698.47
2023-04-02T09:36:44.580Z,100689.91
2023-04-02T09:39:28.313Z,100662.16
2023-04-02T09:42:05.453Z,100703.16
2023-04-02T09:44:33.357Z,100713.84
2023-04-02T09:47:24.931Z,100693.28
2023-04-02T09:49:52.428Z,100661.59
2023-04-02T09:52:30.046Z,100654.06
2023-04-02T09:55:29.374Z,100703.78
2023-04-02T09:58:14.081Z,100700.78
2023-04-02T10:00:58.227Z,100710.00
2023-04-02T10:03:29.559Z,100710.47
2023-04-02T10:06:11.325Z,100727.88
2023-04-02T10:08:41.117Z,100720.53
2023-04-02T10:11:40.133Z,100641.56
2023-04-02T10:14:37.854Z,100694.75
2023-04-02T10:17:14.459Z,100713.16
2023-04-02T10:20:11.695Z,100695.75
2023-04-02T10:22:39.333Z,100691.25
2023-04-02T10:25:14.842Z,100724.22
2023-04-02T10:28:11.785Z,100714.03
2023-04-02T10:31:00.839Z,100690.13
2023-04-02T10:33:33.334Z,100713.81
2023-04-02T10:36:26.227Z,100723.34
2023-04-02T10:38:56.079Z,100726.72
2023-04-02T10:41:36.243Z,100721.69
2023-04-02T10:44:19.649Z,100711.50
2023-04-02T10:47:30.011Z,100721.72
2023-04-02T10:50:06.901Z,100708.84
2023-04-02T10:52:46.384Z,100718.03
2023-04-02T10:55:24.136Z,100713.34
2023-04-02T10:57:58.583Z,100705.66
2023-04-02T11:00:29.038Z,100693.28
2023-04-02T11:03:08.908Z,100667.69
2023-04-02T11:05:43.982Z,100666.69
2023-04-02T11:08:23.728Z,100629.03
2023-04-02T11:11:08.395Z,100686.06
2023-04-02T11:14:05.567Z,100685.06
2023-04-02T11:16:33.618Z,100693.09
2023-04-02T11:19:25.059Z,100696.78
2023-04-02T11:22:06.641Z,100695.13
2023-04-02T11:25:01.707Z,100683.22
2023-04-02T11:27:33.703Z,100687.94
2023-04-02T11:30:27.093Z,100687.72
2023-04-02T11:33:00.194Z,100672.00
2023-04-02T11:35:28.204Z,100705.47
2023-04-02T11:37:57.721Z,100633.34
2023-04-02T11:40:52.103Z,100652.59
2023-04-02T11:43:34.236Z,100640.53
2023-04-02T11:46:28.590Z,100695.09
2023-04-02T11:49:37.288Z,100685.56
2023-04-02T11:52:24.262Z,100680.88
2023-04-02T11:58:00.333Z,100689.38
2023-04-02T12:00:48.215Z,100687.22
2023-04-02T12:03:20.607Z,100633.03
2023-04-02T12:05:58.783Z,100700.75
2023-04-02T12:09:00.054Z,100682.34
2023-04-02T12:11:42.509Z,100692.84
2023-04-02T12:14:31.712Z,100715.13
2023-04-02T12:19:40.666Z,100721.81
2023-04-02T12:22:30.582Z,100726.50
2023-04-02T12:25:38.752Z,100735.88
2023-04-02T12:28:49.589Z,100709.63
2023-04-02T12:31:32.712Z,100731.69
2023-04-02T12:34:02.612Z,100723.78
2023-04-02T12:36:53.661Z,100700.66
2023-04-02T12:39:29.433Z,100700.69
2023-04-02T12:41:57.177Z,100710.41
2023-04-02T12:44:34.488Z,100665.22
2023-04-02T12:47:01.903Z,100722.78
2023-04-02T12:49:42.168Z,100662.72
2023-04-02T12:52:15.500Z,100723.00
2023-04-02T12:55:17.520Z,100727.47
2023-04-02T12:57:54.740Z,100724.88
2023-04-02T13:00:21.328Z,100733.72
2023-04-02T13:03:06.969Z,100736.34
2023-04-02T13:05:38.100Z,100717.56
2023-04-02T13:11:10.098Z,100633.25
2023-04-02T13:13:39.367Z,100545.06
2023-04-02T13:19:38.881Z,100718.13
2023-04-02T13:22:50.160Z,100722.44
2023-04-02T13:25:16.994Z,100702.75
2023-04-02T13:27:44.624Z,100720.06
2023-04-02T13:30:22.981Z,100690.50
2023-04-02T13:32:49.767Z,100727.38
2023-04-02T13:35:23.853Z,100739.91
2023-04-02T13:37:52.844Z,100744.84
2023-04-02T13:40:22.884Z,100638.56
2023-04-02T13:42:51.018Z,100525.47
2023-04-02T13:45:37.492Z,100617.97
2023-04-02T13:48:06.099Z,100599.78
2023-04-02T13:50:38.035Z,100667.13
2023-04-02T13:53:16.633Z,100527.91
2023-04-02T13:55:46.393Z,100517.66
2023-04-02T13:58:16.508Z,100731.22
2023-04-02T14:00:44.581Z,100740.13
2023-04-02T14:03:19.107Z,100601.47
2023-04-02T14:06:09.385Z,100619.44
2023-04-02T14:08:49.123Z,100677.66
2023-04-02T14:11:53.998Z,100707.47
2023-04-02T14:15:01.586Z,100703.28
2023-04-02T14:17:41.262Z,100704.44
2023-04-02T14:20:30.023Z,100727.16
2023-04-02T14:23:02.950Z,100671.22
2023-04-02T14:25:56.888Z,100689.88
2023-04-02T14:28:43.057Z,100721.47
2023-04-02T14:31:15.707Z,100710.09
2023-04-02T14:33:56.595Z,100677.84
2023-04-02T14:36:28.656Z,100693.97
2023-04-02T14:39:06.580Z,100623.94
2023-04-02T14:41:49.804Z,100658.06
2023-04-02T14:44:23.689Z,100621.38
2023-04-02T14:47:13.416Z,100697.22
2023-04-02T14:49:46.268Z,100690.31
2023-04-02T14:52:28.817Z,100706.09
2023-04-02T14:55:33.136Z,100701.19
2023-04-02T14:58:10.040Z,100658.38
2023-04-02T15:00:57.180Z,100691.03
2023-04-02T15:03:43.745Z,100680.84
2023-04-02T15:06:21.390Z,100657.06
2023-04-02T15:09:11.741Z,100653.72
2023-04-02T15:11:45.442Z,100687.84
2023-04-02T15:14:33.144Z,100692.56
2023-04-02T15:17:10.145Z,100690.25
2023-04-02T15:19:44.598Z,100687.78
2023-04-02T15:22:35.087Z,100519.81
2023-04-02T15:25:24.517Z,100624.28
2023-04-02T15:28:16.976Z,100684.69
2023-04-02T15:30:46.284Z,100445.03
2023-04-02T15:33:29.340Z,100684.00
2023-04-02T15:36:36.704Z,100524.19
2023-04-02T15:39:29.066Z,100683.41
2023-04-02T15:42:31.285Z,100692.06
2023-04-02T15:45:09.511Z,100685.69
2023-04-02T15:47:42.665Z,100693.03
2023-04-02T15:50:32.564Z,100669.94
2023-04-02T15:53:23.636Z,100700.25
2023-04-02T15:56:20.254Z,100652.63
2023-04-02T15:59:18.366Z,100678.41
2023-04-02T16:02:05.342Z,100707.22
2023-04-02T16:04:45.740Z,100700.88
2023-04-02T16:07:55.815Z,100669.97
2023-04-02T16:10:39.970Z,100701.19
2023-04-02T16:13:37.198Z,100707.13
2023-04-02T16:16:29.638Z,100699.78
2023-04-02T16:19:41.969Z,100703.81
2023-04-02T16:22:08.845Z,100698.03
2023-04-02T16:24:35.858Z,100678.03
2023-04-02T16:27:27.859Z,100519.97
2023-04-02T16:30:14.175Z,100710.47
2023-04-02T16:33:14.137Z,100626.16
2023-04-02T16:54:01.023Z,100715.00
2023-04-02T16:57:24.803Z,100706.28
2023-04-02T17:03:09.374Z,100635.25
2023-04-02T17:05:45.653Z,100704.41
2023-04-02T17:12:35.421Z,100669.94
2023-04-02T17:15:35.508Z,100658.69
2023-04-02T17:18:20.800Z,100616.84
2023-04-02T17:20:53.660Z,100514.34
2023-04-02T17:23:46.253Z,100622.97
2023-04-02T17:26:52.145Z,100592.78
2023-04-02T17:29:52.951Z,100700.56
2023-04-02T17:32:57.520Z,100694.13
2023-04-02T17:36:07.353Z,100574.81
2023-04-02T17:39:05.842Z,100704.13
2023-04-02T17:42:05.770Z,100555.09
2023-04-02T17:44:47.242Z,100685.25
2023-04-02T17:47:59.671Z,100601.06
2023-04-02T17:54:25.786Z,100725.78
2023-04-02T17:57:10.511Z,100708.63
2023-04-02T17:59:42.705Z,100729.69
2023-04-02T18:02:41.117Z,100745.63
2023-04-02T18:05:19.440Z,100739.69
2023-04-02T18:08:43.575Z,100739.50
2023-04-02T18:10:51.327Z,100740.91
2023-04-02T18:16:49.868Z,100734.66
2023-04-02T18:19:42.683Z,100761.97
2023-04-02T18:22:22.925Z,100765.78
2023-04-02T18:25:20.946Z,100774.25
2023-04-02T18:28:00.180Z,100764.28
2023-04-02T18:30:48.280Z,100772.28
2023-04-02T18:33:43.884Z,100720.22
2023-04-02T18:36:54.510Z,100741.34
2023-04-02T18:40:02.933Z,100796.38
2023-04-02T18:43:17.864Z,100730.41
2023-04-02T18:46:59.697Z,100746.69
2023-04-02T18:49:38.358Z,100796.25
2023-04-02T18:52:32.043Z,100580.28
2023-04-02T18:55:09.094Z,100702.94
2023-04-02T18:57:46.438Z,100622.38
2023-04-02T19:00:34.717Z,100767.78
2023-04-02T19:03:41.977Z,100808.88
2023-04-02T19:06:37.012Z,100818.66
2023-04-02T19:09:39.836Z,100831.03
2023-04-02T19:12:35.463Z,100830.53
2023-04-02T19:15:19.348Z,100780.88
2023-04-02T19:21:26.713Z,100601.16
2023-04-02T19:24:15.817Z,100844.59
2023-04-02T19:27:04.455Z,100760.06
2023-04-02T19:29:59.327Z,100850.47
2023-04-02T19:33:11.722Z,100855.53
2023-04-02T19:36:18.148Z,100629.69
2023-04-02T19:39:04.776Z,100754.22
2023-04-02T19:42:54.667Z,100660.03
2023-04-02T19:46:05.831Z,100788.63
2023-04-02T19:52:55.561Z,100781.97
2023-04-02T19:55:42.296Z,100784.75
2023-04-02T19:58:52.540Z,100708.28
2023-04-02T20:01:27.291Z,100736.97
2023-04-02T20:04:15.768Z,100759.78
2023-04-02T20:06:54.022Z,100855.19
2023-04-02T20:12:31.293Z,100664.16
2023-04-02T20:15:10.336Z,100874.94
2023-04-02T20:17:52.610Z,100859.66
2023-04-02T20:20:30.480Z,100810.88
2023-04-02T20:23:10.463Z,100872.44
2023-04-02T20:26:23.623Z,100885.03
2023-04-02T20:29:01.837Z,100751.34
2023-04-02T20:31:34.779Z,100830.34
2023-04-02T20:37:17.454Z,100817.72
2023-04-02T20:40:08.915Z,100664.47
2023-04-02T20:43:18.707Z,100741.19
2023-04-02T20:46:13.251Z,100923.22
2023-04-02T20:51:35.521Z,100793.66
2023-04-02T20:54:03.935Z,100831.34
2023-04-02T21:03:07.847Z,100940.09
2023-04-02T21:05:38.165Z,100930.09
2023-04-02T21:08:07.217Z,100735.31
2023-04-02T21:10:42.527Z,100751.25
2023-04-02T21:13:12.584Z,100770.22
2023-04-02T21:15:53.769Z,100848.72
2023-04-02T21:21:20.428Z,100944.66
2023-04-02T21:26:33.430Z,100946.63
2023-04-02T21:29:08.531Z,100934.75
2023-04-02T21:31:45.542Z,100861.00
2023-04-02T21:34:21.462Z,100942.75
2023-04-02T21:39:56.591Z,100932.47
2023-04-02T21:42:40.702Z,100832.38
2023-04-02T21:45:14.070Z,100902.69
2023-04-02T21:47:44.350Z,100900.91
2023-04-02T21:50:20.495Z,100877.63
2023-04-02T21:52:47.182Z,100939.53
2023-04-02T21:55:13.994Z,100932.41
2023-04-02T21:57:47.452Z,100902.63
2023-04-02T22:00:17.467Z,100927.03
2023-04-02T22:02:44.462Z,100916.38
2023-04-02T22:08:14.021Z,100863.59
2023-04-02T22:10:41.799Z,100927.66
2023-04-02T22:13:11.539Z,100930.47
2023-04-02T22:18:31.691Z,100876.91
2023-04-02T22:21:02.319Z,100914.59
2023-04-02T22:23:29.923Z,100869.03
2023-04-02T22:26:18.788Z,100878.28
2023-04-02T22:28:47.244Z,100844.91
2023-04-02T22:31:20.961Z,100930.06
2023-04-02T22:33:48.839Z,100902.59
2023-04-02T22:36:17.378Z,100911.03
2023-04-02T22:38:55.935Z,100908.22
2023-04-02T22:41:31.161Z,100935.16
2023-04-02T22:44:15.988Z,100921.81
2023-04-02T22:46:49.880Z,100889.00
2023-04-02T22:49:20.499Z,100929.91
2023-04-02T22:57:21.303Z,100895.47
2023-04-02T22:59:57.836Z,100897.56
2023-04-02T23:02:26.880Z,100805.38
2023-04-02T23:04:54.004Z,100913.47
2023-04-02T23:07:23.855Z,100891.31
2023-04-02T23:12:57.117Z,100865.50
2023-04-02T23:15:23.829Z,100897.19
2023-04-02T23:17:50.916Z,100911.66
2023-04-02T23:20:23.209Z,100917.69
2023-04-02T23:22:49.896Z,100854.09
2023-04-02T23:25:16.720Z,100908.75
2023-04-02T23:27:43.427Z,100902.81
2023-04-02T23:30:15.237Z,100896.50
2023-04-02T23:32:42.167Z,100905.31
2023-04-02T23:35:09.232Z,100883.38
2023-04-02T23:37:35.865Z,100890.34
2023-04-02T23:40:05.340Z,100908.16
2023-04-02T23:42:35.631Z,100778.34
2023-04-02T23:45:03.362Z,100906.69
2023-04-02T23:47:30.128Z,100905.75
2023-04-02T23:49:59.142Z,100912.28
2023-04-02T23:52:40.093Z,100847.56
2023-04-02T23:55:13.372Z,100879.34
2023-04-02T23:57:40.369Z,100875.28
